Time;durP1;ratioP1;P1;durP2;ratioP2;P2;SDS_P1;SDS_P2;PMS_P1;PMS_P2;Temp;Humidity;BMP_temperature;BMP_pressure;BME280_temperature;BME280_humidity;BME280_pressure;Samples;Min_cycle;Max_cycle;Signal;HPM_P1;HPM_P2
2024/01/09 05:02:36;;;;;;;0.90;0.90;;;-5.30;99.90;;;;;;4865482;29;20299;-68
2024/01/09 05:05:04;;;;;;;1.77;1.67;;;-5.30;99.90;;;;;;4874289;29;20216;-68
2024/01/09 05:07:30;;;;;;;2.10;1.95;;;-5.30;99.90;;;;;;4867854;29;20348;-68
2024/01/09 05:09:57;;;;;;;6.32;2.67;;;-5.30;99.90;;;;;;4868249;29;20212;-68
2024/01/09 05:12:24;;;;;;;1.70;1.65;;;-5.40;99.90;;;;;;4861634;29;20255;-68
2024/01/09 05:14:50;;;;;;;0.75;0.75;;;-5.40;99.90;;;;;;4856227;29;20221;-68
2024/01/09 05:17:17;;;;;;;2.35;1.38;;;-5.40;99.90;;;;;;4857725;29;20208;-69
2024/01/09 05:19:45;;;;;;;0.85;0.82;;;-5.50;99.90;;;;;;4856074;29;20256;-68
2024/01/09 05:22:12;;;;;;;0.60;0.60;;;-5.40;99.90;;;;;;4854508;29;20240;-68
2024/01/09 05:24:38;;;;;;;0.80;0.80;;;-5.50;99.90;;;;;;4860322;29;20212;-69
2024/01/09 05:27:05;;;;;;;2.70;2.60;;;-5.50;99.90;;;;;;4854908;29;20215;-68
2024/01/09 05:29:32;;;;;;;1.15;1.15;;;-5.50;99.90;;;;;;4853564;29;20217;-69
2024/01/09 05:31:58;;;;;;;3.50;1.75;;;-5.60;99.90;;;;;;4859821;29;20545;-68
2024/01/09 05:34:25;;;;;;;1.60;1.60;;;-5.60;99.90;;;;;;4854488;29;20223;-69
2024/01/09 05:36:53;;;;;;;3.92;1.08;;;-5.60;99.90;;;;;;4850954;29;20221;-69
2024/01/09 05:39:20;;;;;;;2.47;1.50;;;-5.60;99.90;;;;;;4857946;29;20594;-69
2024/01/09 05:41:47;;;;;;;1.30;1.20;;;-5.60;99.90;;;;;;4855644;29;20719;-69
2024/01/09 05:44:13;;;;;;;1.95;1.85;;;-5.70;99.90;;;;;;4854833;29;20241;-69
2024/01/09 05:46:40;;;;;;;1.30;1.30;;;-5.70;99.90;;;;;;4856615;29;20219;-69
2024/01/09 05:49:07;;;;;;;2.47;1.80;;;-5.70;99.90;;;;;;4857076;29;20205;-68
2024/01/09 05:51:33;;;;;;;1.60;1.42;;;-5.80;99.90;;;;;;4855990;29;20233;-69
2024/01/09 05:54:02;;;;;;;2.17;0.85;;;-5.80;99.90;;;;;;4856749;29;20209;-69
2024/01/09 05:56:28;;;;;;;7.60;1.95;;;-5.80;99.90;;;;;;4854594;29;20209;-69
2024/01/09 05:58:55;;;;;;;2.35;1.40;;;-5.80;99.90;;;;;;4856067;29;20312;-69
2024/01/09 06:01:22;;;;;;;2.25;2.15;;;-5.80;99.90;;;;;;4856238;29;20240;-69
2024/01/09 06:03:48;;;;;;;4.30;1.20;;;-5.80;99.90;;;;;;4851149;29;20213;-69
2024/01/09 06:06:15;;;;;;;1.80;1.02;;;-5.80;99.90;;;;;;4859827;29;20286;-69
2024/01/09 06:08:42;;;;;;;1.15;1.15;;;-5.90;99.90;;;;;;4849590;29;20213;-69
2024/01/09 06:11:10;;;;;;;1.20;1.13;;;-5.90;99.90;;;;;;4857929;29;20229;-69
2024/01/09 06:13:37;;;;;;;1.60;1.48;;;-5.90;99.90;;;;;;4848204;29;20217;-69
2024/01/09 06:16:04;;;;;;;2.42;1.90;;;-5.90;99.90;;;;;;4847410;29;20648;-68
2024/01/09 06:18:31;;;;;;;0.98;0.98;;;-5.90;99.90;;;;;;4857240;29;20213;-69
2024/01/09 06:20:57;;;;;;;1.23;1.20;;;-5.90;99.90;;;;;;4848531;29;20235;-69
2024/01/09 06:23:24;;;;;;;1.55;1.45;;;-5.90;99.90;;;;;;4852706;29;20216;-69
2024/01/09 06:25:51;;;;;;;1.05;1.05;;;-5.90;99.90;;;;;;4848281;29;20894;-68
2024/01/09 06:28:19;;;;;;;1.85;1.75;;;-5.90;99.90;;;;;;4858118;29;20559;-68
2024/01/09 06:30:46;;;;;;;3.60;3.30;;;-5.90;99.90;;;;;;4855938;29;20229;-68
2024/01/09 06:33:13;;;;;;;3.15;1.20;;;-5.90;99.90;;;;;;4855498;29;20213;-68
2024/01/09 06:35:39;;;;;;;2.55;2.45;;;-5.90;99.90;;;;;;4850258;29;20212;-68
2024/01/09 06:38:06;;;;;;;1.40;1.35;;;-5.90;99.90;;;;;;4851177;29;20217;-68
2024/01/09 06:40:33;;;;;;;1.52;1.52;;;-6.00;99.90;;;;;;4857276;29;20312;-69
2024/01/09 06:43:00;;;;;;;3.03;1.52;;;-5.90;99.90;;;;;;4852864;29;20231;-68
2024/01/09 06:45:28;;;;;;;1.55;1.55;;;-6.00;99.90;;;;;;4847909;29;20328;-67
2024/01/09 06:47:54;;;;;;;1.35;1.10;;;-6.00;99.90;;;;;;4855667;29;20645;-68
2024/01/09 06:50:21;;;;;;;3.88;2.30;;;-6.00;99.90;;;;;;4854998;29;20228;-68
2024/01/09 06:52:48;;;;;;;2.20;2.08;;;-6.00;99.90;;;;;;4854111;29;20216;-68
2024/01/09 06:55:15;;;;;;;1.70;1.60;;;-6.00;99.90;;;;;;4849783;29;20235;-69
2024/01/09 06:57:42;;;;;;;3.50;1.58;;;-6.00;99.90;;;;;;4849267;29;20692;-67
2024/01/09 07:00:09;;;;;;;0.63;0.63;;;-6.00;99.90;;;;;;4851077;29;20250;-67
2024/01/09 07:02:37;;;;;;;0.95;0.82;;;-6.10;99.90;;;;;;4855624;29;20671;-67
2024/01/09 07:05:04;;;;;;;1.55;1.50;;;-6.10;99.90;;;;;;4857988;29;20659;-67
2024/01/09 07:07:31;;;;;;;1.10;0.73;;;-6.10;99.90;;;;;;4858040;29;20632;-67
2024/01/09 07:09:58;;;;;;;1.58;1.30;;;-6.10;99.90;;;;;;4849702;29;20201;-67
2024/01/09 07:12:25;;;;;;;0.50;0.50;;;-6.10;99.90;;;;;;4850446;29;20236;-67
2024/01/09 07:14:52;;;;;;;2.47;1.92;;;-6.10;99.90;;;;;;4851341;29;20213;-68
2024/01/09 07:17:19;;;;;;;1.92;1.70;;;-6.10;99.90;;;;;;4857569;29;20211;-68
2024/01/09 07:19:47;;;;;;;1.77;1.17;;;-6.10;99.90;;;;;;4857366;29;20341;-68
2024/01/09 07:22:13;;;;;;;3.58;2.67;;;-6.10;99.90;;;;;;4857241;29;20610;-68
2024/01/09 07:24:40;;;;;;;1.20;1.20;;;-6.10;99.90;;;;;;4852629;29;20213;-68
2024/01/09 07:27:07;;;;;;;1.20;1.20;;;-6.10;99.90;;;;;;4857157;29;20212;-68
2024/01/09 07:29:33;;;;;;;1.05;1.02;;;-6.00;99.90;;;;;;4853661;29;20212;-68
2024/01/09 07:32:00;;;;;;;4.68;4.47;;;-6.00;99.90;;;;;;4857226;29;20229;-68
2024/01/09 07:34:27;;;;;;;1.92;1.83;;;-6.00;99.90;;;;;;4855311;29;20213;-68
2024/01/09 07:36:55;;;;;;;2.63;1.67;;;-6.00;99.90;;;;;;4849702;29;20220;-68
2024/01/09 07:39:22;;;;;;;3.03;2.40;;;-5.90;99.90;;;;;;4851682;29;20590;-68
2024/01/09 07:41:48;;;;;;;2.13;2.05;;;-5.90;99.90;;;;;;4849656;29;20236;-68
2024/01/09 07:44:15;;;;;;;1.30;1.20;;;-5.90;99.90;;;;;;4854403;29;20216;-68
2024/01/09 07:46:42;;;;;;;4.63;1.23;;;-5.90;99.90;;;;;;4849960;29;20595;-69
2024/01/09 07:49:09;;;;;;;1.33;0.63;;;-5.90;99.90;;;;;;4852025;29;20208;-68
2024/01/09 07:51:35;;;;;;;1.60;1.60;;;-5.90;99.90;;;;;;4857899;29;20232;-68
2024/01/09 07:54:04;;;;;;;5.05;2.05;;;-5.90;99.90;;;;;;4846934;29;20217;-67
2024/01/09 07:56:31;;;;;;;0.77;0.77;;;-5.90;99.90;;;;;;4847186;29;20208;-68
2024/01/09 07:58:58;;;;;;;2.83;2.63;;;-5.90;99.90;;;;;;4858651;29;20359;-68
2024/01/09 08:01:27;;;;;;;1.95;0.52;;;-5.90;99.90;;;;;;4858176;29;20658;-68
2024/01/09 08:03:54;;;;;;;1.33;1.33;;;-5.90;99.90;;;;;;4850018;29;20216;-68
2024/01/09 08:06:20;;;;;;;0.98;0.98;;;-5.80;99.90;;;;;;4857787;29;20231;-69
2024/01/09 08:08:47;;;;;;;2.60;2.60;;;-5.80;99.90;;;;;;4859901;29;20411;-69
2024/01/09 08:11:16;;;;;;;13.80;2.63;;;-5.70;99.90;;;;;;4857805;29;20318;-68
2024/01/09 08:13:43;;;;;;;1.08;1.08;;;-5.70;99.90;;;;;;4852311;29;20214;-68
2024/01/09 08:16:09;;;;;;;1.02;1.02;;;-5.60;99.90;;;;;;4855309;29;20221;-68
2024/01/09 08:18:37;;;;;;;2.17;1.85;;;-5.60;99.90;;;;;;4858189;29;20232;-68
2024/01/09 08:21:04;;;;;;;2.15;2.05;;;-5.60;99.90;;;;;;4859307;29;20260;-68
2024/01/09 08:23:31;;;;;;;0.93;0.90;;;-5.60;99.90;;;;;;4853933;29;20249;-68
2024/01/09 08:25:58;;;;;;;1.38;1.35;;;-5.50;99.90;;;;;;4860134;29;20223;-68
2024/01/09 08:28:26;;;;;;;2.53;2.42;;;-5.50;99.90;;;;;;4855679;29;20213;-69
2024/01/09 08:30:53;;;;;;;1.13;1.13;;;-5.50;99.90;;;;;;4859863;29;20237;-68
2024/01/09 08:33:20;;;;;;;1.92;1.85;;;-5.40;99.90;;;;;;4854221;29;20270;-68
2024/01/09 08:35:50;;;;;;;2.33;1.98;;;-5.40;99.90;;;;;;4851541;29;20221;-67
2024/01/09 08:38:17;;;;;;;1.02;1.02;;;-5.30;99.90;;;;;;4861335;29;20205;-68
2024/01/09 08:40:44;;;;;;;1.60;1.55;;;-5.30;99.90;;;;;;4849169;29;20604;-68
2024/01/09 08:43:10;;;;;;;7.22;2.95;;;-5.30;99.90;;;;;;4860119;29;20209;-68
2024/01/09 08:45:38;;;;;;;2.83;2.17;;;-5.20;99.90;;;;;;4855986;29;20219;-68
2024/01/09 08:48:06;;;;;;;1.65;1.65;;;-5.10;99.90;;;;;;4860256;29;20213;-67
2024/01/09 08:50:33;;;;;;;1.15;1.15;;;-5.10;99.90;;;;;;4858988;29;20231;-68
2024/01/09 08:53:00;;;;;;;1.70;1.58;;;-5.00;99.90;;;;;;4858349;29;20220;-68
2024/01/09 08:55:26;;;;;;;1.15;1.15;;;-5.00;99.90;;;;;;4857932;29;20212;-68
2024/01/09 08:57:53;;;;;;;2.75;2.45;;;-4.90;99.90;;;;;;4860363;29;20560;-68
2024/01/09 09:00:20;;;;;;;0.30;0.30;;;-4.90;99.90;;;;;;4853927;29;20221;-68
2024/01/09 09:02:48;;;;;;;1.67;1.65;;;-4.80;99.90;;;;;;4843694;29;20231;-68
2024/01/09 09:05:15;;;;;;;1.70;1.02;;;-4.80;99.90;;;;;;4843463;29;20851;-68
2024/01/09 09:07:42;;;;;;;3.00;2.83;;;-4.80;99.90;;;;;;4851316;29;20209;-68
2024/01/09 09:10:09;;;;;;;4.15;1.88;;;-4.80;99.90;;;;;;4850441;29;20251;-68
2024/01/09 09:12:35;;;;;;;5.25;1.58;;;-4.70;99.90;;;;;;4855289;29;20215;-68
2024/01/09 09:15:03;;;;;;;2.08;1.95;;;-4.70;99.90;;;;;;4854828;29;20223;-67
2024/01/09 09:17:30;;;;;;;3.25;1.67;;;-4.60;99.90;;;;;;4850994;29;20284;-68
2024/01/09 09:19:59;;;;;;;2.08;1.35;;;-4.60;99.90;;;;;;4851575;29;20232;-68
2024/01/09 09:22:25;;;;;;;1.48;1.38;;;-4.50;99.90;;;;;;4856227;29;20228;-68
2024/01/09 09:24:52;;;;;;;1.52;1.52;;;-4.50;99.90;;;;;;4851515;29;20296;-67
2024/01/09 09:27:19;;;;;;;0.90;0.90;;;-4.50;99.90;;;;;;4855949;29;20798;-68
2024/01/09 09:29:46;;;;;;;3.92;1.98;;;-4.40;99.90;;;;;;4850363;29;20627;-68
2024/01/09 09:32:13;;;;;;;2.55;1.73;;;-4.40;99.90;;;;;;4846164;29;20955;-67
2024/01/09 09:34:40;;;;;;;2.25;2.15;;;-4.30;99.90;;;;;;4850956;29;20239;-67
2024/01/09 09:37:08;;;;;;;2.78;2.67;;;-4.30;99.90;;;;;;4854109;29;20205;-67
2024/01/09 09:39:35;;;;;;;1.58;1.58;;;-4.20;99.90;;;;;;4854956;29;20216;-68
2024/01/09 09:42:02;;;;;;;2.35;2.15;;;-4.20;99.90;;;;;;4851776;29;20782;-67
2024/01/09 09:44:29;;;;;;;2.75;2.65;;;-4.10;99.90;;;;;;4854126;29;20205;-68
2024/01/09 09:46:56;;;;;;;1.20;1.20;;;-4.10;99.90;;;;;;4853524;29;20223;-68
2024/01/09 09:49:23;;;;;;;4.15;1.45;;;-4.10;99.90;;;;;;4856530;29;20213;-67
2024/01/09 09:51:50;;;;;;;6.05;5.22;;;-4.10;99.90;;;;;;4849622;29;20248;-68
2024/01/09 09:54:22;;;;;;;1.02;1.02;;;-4.00;99.90;;;;;;4849525;29;20241;-67
2024/01/09 09:56:48;;;;;;;1.73;1.60;;;-4.00;99.90;;;;;;4852695;29;20216;-67
2024/01/09 09:59:16;;;;;;;2.90;2.80;;;-3.90;99.90;;;;;;4857685;29;20213;-68
2024/01/09 10:01:45;;;;;;;3.17;2.88;;;-3.80;99.90;;;;;;4849223;29;20241;-67
2024/01/09 10:04:30;;;;;;;2.47;2.35;;;-3.80;99.90;;;;;;4848776;29;20228;-68
2024/01/09 10:06:58;;;;;;;2.88;2.67;;;-3.70;99.90;;;;;;4855424;29;20303;-68
2024/01/09 10:09:31;;;;;;;1.80;1.38;;;-3.60;99.90;;;;;;4854817;29;20205;-67
2024/01/09 10:11:58;;;;;;;4.32;2.80;;;-3.50;99.90;;;;;;4855807;29;20229;-68
2024/01/09 10:14:24;;;;;;;1.45;1.33;;;-3.50;99.90;;;;;;4852530;29;20213;-68
2024/01/09 10:16:53;;;;;;;2.25;1.50;;;-3.50;99.90;;;;;;4857218;29;20847;-68
2024/01/09 10:19:21;;;;;;;9.00;2.97;;;-3.40;99.90;;;;;;4861033;29;20235;-68
2024/01/09 10:21:48;;;;;;;2.92;2.58;;;-3.40;99.90;;;;;;4864067;29;20252;-68
2024/01/09 10:24:15;;;;;;;8.30;1.75;;;-3.40;99.90;;;;;;4860800;29;20209;-69
2024/01/09 10:26:44;;;;;;;4.93;3.15;;;-3.40;99.90;;;;;;4855180;29;20216;-68
2024/01/09 10:29:10;;;;;;;4.72;3.00;;;-3.40;99.90;;;;;;4860164;29;20213;-68
2024/01/09 10:31:38;;;;;;;1.15;1.10;;;-3.30;99.90;;;;;;4858102;29;20720;-68
2024/01/09 10:34:05;;;;;;;1.55;1.20;;;-3.30;99.90;;;;;;4857104;29;20225;-68
2024/01/09 10:36:32;;;;;;;1.10;1.10;;;-3.30;99.90;;;;;;4859707;29;20212;-68
2024/01/09 10:39:04;;;;;;;1.90;1.90;;;-3.20;99.90;;;;;;4857048;29;20213;-67
2024/01/09 10:41:32;;;;;;;4.70;3.15;;;-3.10;99.90;;;;;;4853606;29;20239;-68
2024/01/09 10:44:02;;;;;;;2.15;2.13;;;-3.10;99.90;;;;;;4857081;29;20298;-68
2024/01/09 10:46:31;;;;;;;2.88;2.35;;;-3.00;99.90;;;;;;4863201;29;20219;-68
2024/01/09 10:49:00;;;;;;;2.53;2.42;;;-2.90;99.90;;;;;;4862417;29;20322;-68
2024/01/09 10:51:27;;;;;;;2.20;2.00;;;-2.90;99.90;;;;;;4854881;29;20760;-68
2024/01/09 10:53:56;;;;;;;2.35;1.90;;;-2.80;99.90;;;;;;4853311;29;20223;-68
2024/01/09 10:56:23;;;;;;;0.95;0.95;;;-2.80;99.90;;;;;;4849526;29;20225;-68
2024/01/09 10:58:51;;;;;;;3.08;2.75;;;-2.70;99.90;;;;;;4856665;29;20249;-67
2024/01/09 11:01:19;;;;;;;1.20;1.20;;;-2.60;99.90;;;;;;4854259;29;20255;-68
2024/01/09 11:03:47;;;;;;;3.15;2.88;;;-2.60;99.90;;;;;;4848130;29;20212;-68
2024/01/09 11:06:17;;;;;;;1.92;1.77;;;-2.60;99.90;;;;;;4852919;29;20277;-68
2024/01/09 11:08:50;;;;;;;1.55;0.65;;;-2.50;99.90;;;;;;4850550;29;20209;-67
2024/01/09 11:11:21;;;;;;;1.85;1.75;;;-2.60;99.90;;;;;;4855115;29;20245;-68
2024/01/09 11:13:52;;;;;;;1.63;1.63;;;-2.60;99.90;;;;;;4853651;29;20220;-68
2024/01/09 11:16:22;;;;;;;3.60;2.40;;;-2.50;99.90;;;;;;4851047;29;20217;-68
2024/01/09 11:18:50;;;;;;;2.15;2.05;;;-2.50;99.90;;;;;;4848858;29;20209;-68
2024/01/09 11:21:24;;;;;;;2.30;1.95;;;-2.40;99.90;;;;;;4852159;29;20225;-67
2024/01/09 11:24:00;;;;;;;4.15;3.28;;;-2.40;99.90;;;;;;4854993;29;20624;-67
2024/01/09 11:26:29;;;;;;;1.33;1.27;;;-2.40;99.90;;;;;;4852694;29;20683;-68
2024/01/09 11:28:57;;;;;;;1.75;1.70;;;-2.30;99.90;;;;;;4852564;29;20217;-68
2024/01/09 11:31:29;;;;;;;3.08;2.97;;;-2.20;99.90;;;;;;4854477;29;20225;-68
2024/01/09 11:33:57;;;;;;;1.85;1.75;;;-2.10;99.90;;;;;;4850488;29;20221;-68
2024/01/09 11:36:28;;;;;;;3.10;2.90;;;-2.10;99.90;;;;;;4850938;29;20622;-66
2024/01/09 11:38:55;;;;;;;3.83;2.33;;;-2.00;99.90;;;;;;4858425;29;20221;-67
2024/01/09 11:41:23;;;;;;;2.55;2.35;;;-2.00;99.90;;;;;;4853443;29;20612;-67
2024/01/09 11:44:04;;;;;;;2.47;2.38;;;-2.10;99.90;;;;;;4857952;29;20212;-67
2024/01/09 11:46:34;;;;;;;1.60;1.60;;;-2.00;99.90;;;;;;4846536;29;20213;-66
2024/01/09 11:49:01;;;;;;;2.45;2.35;;;-2.10;99.90;;;;;;4851095;29;20702;-67
2024/01/09 11:51:29;;;;;;;5.72;2.15;;;-2.00;99.90;;;;;;4846456;29;20692;-67
2024/01/09 11:53:58;;;;;;;0.77;0.77;;;-2.00;99.90;;;;;;4845020;29;20215;-66
2024/01/09 11:56:26;;;;;;;1.63;1.52;;;-2.00;99.90;;;;;;4851618;29;20658;-67
2024/01/09 11:58:53;;;;;;;2.15;1.98;;;-2.00;99.90;;;;;;4847082;29;20426;-67
2024/01/09 12:01:20;;;;;;;1.27;1.23;;;-2.00;99.90;;;;;;4855060;29;20240;-67
2024/01/09 12:03:53;;;;;;;2.95;1.88;;;-1.90;99.90;;;;;;4849428;29;20217;-68
2024/01/09 12:06:21;;;;;;;2.58;1.73;;;-1.90;99.90;;;;;;4856105;29;20703;-69
2024/01/09 12:08:48;;;;;;;1.27;1.13;;;-1.90;99.90;;;;;;4847384;29;20229;-69
2024/01/09 12:11:16;;;;;;;2.72;2.53;;;-1.80;99.90;;;;;;4844463;29;20229;-70
2024/01/09 12:13:44;;;;;;;2.60;1.48;;;-1.80;99.90;;;;;;4854456;29;20223;-67
2024/01/09 12:16:18;;;;;;;4.15;1.98;;;-1.80;99.90;;;;;;4846445;29;20630;-67
2024/01/09 12:18:49;;;;;;;2.42;0.98;;;-1.80;99.90;;;;;;4846489;29;20582;-68
2024/01/09 12:21:18;;;;;;;1.80;1.70;;;-1.80;99.90;;;;;;4847038;29;20333;-68
2024/01/09 12:23:45;;;;;;;2.40;2.25;;;-1.70;99.90;;;;;;4851999;29;20654;-68
2024/01/09 12:26:12;;;;;;;2.72;2.47;;;-1.70;99.90;;;;;;4855442;29;20217;-68
2024/01/09 12:28:39;;;;;;;3.17;1.98;;;-1.60;99.90;;;;;;4856721;29;20264;-68
2024/01/09 12:31:08;;;;;;;1.83;1.70;;;-1.60;99.90;;;;;;4848995;29;20235;-68
2024/01/09 12:33:35;;;;;;;3.90;2.53;;;-1.50;99.90;;;;;;4853932;29;20220;-67
2024/01/09 12:36:02;;;;;;;2.70;1.65;;;-1.50;99.90;;;;;;4847716;29;20210;-67
2024/01/09 12:38:30;;;;;;;3.55;2.45;;;-1.40;99.90;;;;;;4846312;29;20221;-68
2024/01/09 12:41:00;;;;;;;6.63;2.47;;;-1.40;99.90;;;;;;4845443;29;20239;-68
2024/01/09 12:43:27;;;;;;;8.48;4.43;;;-1.40;99.90;;;;;;4845675;29;20665;-68
2024/01/09 12:45:54;;;;;;;2.25;2.10;;;-1.40;99.90;;;;;;4846727;29;20279;-68
2024/01/09 12:48:21;;;;;;;2.03;1.90;;;-1.30;99.90;;;;;;4846305;29;20209;-68
2024/01/09 12:50:58;;;;;;;2.70;2.42;;;-1.30;99.90;;;;;;4844766;29;20248;-68
2024/01/09 12:53:25;;;;;;;3.72;2.72;;;-1.30;99.90;;;;;;4845536;29;20217;-68
2024/01/09 12:56:04;;;;;;;5.38;2.35;;;-1.30;99.90;;;;;;4851078;29;20232;-68
2024/01/09 12:58:34;;;;;;;2.33;2.20;;;-1.20;99.90;;;;;;4849296;29;20300;-68
2024/01/09 13:01:13;;;;;;;2.75;2.50;;;-1.20;99.90;;;;;;4845205;29;20327;-69
2024/01/09 13:03:51;;;;;;;2.42;2.33;;;-1.20;99.90;;;;;;4851037;29;20227;-68
2024/01/09 13:06:25;;;;;;;4.43;2.47;;;-1.20;99.90;;;;;;4851170;29;20225;-68
2024/01/09 13:08:56;;;;;;;1.73;1.55;;;-1.20;99.90;;;;;;4848631;29;20243;-68
2024/01/09 13:11:29;;;;;;;4.63;1.60;;;-1.10;99.90;;;;;;4850766;29;20312;-68
2024/01/09 13:14:09;;;;;;;2.53;1.80;;;-1.10;99.90;;;;;;4857399;29;20592;-68
2024/01/09 13:16:37;;;;;;;2.22;2.22;;;-1.10;99.90;;;;;;4853985;29;20208;-68
2024/01/09 13:19:09;;;;;;;4.45;2.10;;;-1.10;99.90;;;;;;4858209;29;20325;-68
2024/01/09 13:21:52;;;;;;;2.05;0.85;;;-1.10;99.90;;;;;;4854305;29;20233;-68
2024/01/09 13:24:20;;;;;;;5.00;1.98;;;-1.10;99.90;;;;;;4859414;29;20294;-68
2024/01/09 13:26:58;;;;;;;2.00;1.90;;;-1.00;99.90;;;;;;4850088;29;20239;-68
2024/01/09 13:29:28;;;;;;;1.17;1.17;;;-1.00;99.90;;;;;;4846711;29;20239;-68
2024/01/09 13:32:01;;;;;;;1.27;0.98;;;-1.00;99.90;;;;;;4853689;29;20274;-68
2024/01/09 13:34:49;;;;;;;1.30;1.30;;;-1.00;99.90;;;;;;4855492;29;20557;-68
2024/01/09 13:37:20;;;;;;;1.15;1.15;;;-1.00;99.90;;;;;;4850177;29;20304;-69
2024/01/09 13:39:54;;;;;;;2.60;2.50;;;-1.00;99.90;;;;;;4856914;29;20933;-68
2024/01/09 13:42:30;;;;;;;1.48;1.40;;;-1.00;99.90;;;;;;4846959;29;20232;-69
2024/01/09 13:44:58;;;;;;;1.25;1.23;;;-1.00;99.90;;;;;;4857620;29;20255;-68
2024/01/09 13:47:35;;;;;;;1.58;1.30;;;-1.00;99.90;;;;;;4857009;29;20296;-69
2024/01/09 13:50:19;;;;;;;2.28;2.08;;;-1.00;99.90;;;;;;4847153;29;20220;-68
2024/01/09 13:52:47;;;;;;;1.20;1.20;;;-1.00;99.90;;;;;;4849351;29;20209;-68
2024/01/09 13:55:24;;;;;;;2.30;1.48;;;-1.10;99.90;;;;;;4848058;29;20213;-68
2024/01/09 13:58:04;;;;;;;1.30;1.30;;;-1.00;99.90;;;;;;4857952;29;20223;-69
2024/01/09 14:00:37;;;;;;;1.40;1.35;;;-1.00;99.90;;;;;;4859730;29;20243;-68
2024/01/09 14:03:08;;;;;;;1.60;1.50;;;-1.10;99.90;;;;;;4850891;29;20248;-68
2024/01/09 14:05:39;;;;;;;1.27;1.27;;;-1.10;99.90;;;;;;4855483;29;20241;-68
2024/01/09 14:08:10;;;;;;;2.97;2.78;;;-1.10;99.90;;;;;;4847659;29;20213;-68
2024/01/09 14:10:37;;;;;;;2.33;2.08;;;-1.10;99.90;;;;;;4853183;29;20232;-68
2024/01/09 14:13:07;;;;;;;3.85;3.65;;;-1.10;99.90;;;;;;4856308;29;20232;-68
2024/01/09 14:15:39;;;;;;;1.77;1.67;;;-1.10;99.90;;;;;;4853333;29;20212;-68
2024/01/09 14:18:09;;;;;;;1.67;1.50;;;-1.10;99.90;;;;;;4851828;29;20291;-68
2024/01/09 14:20:37;;;;;;;0.60;0.60;;;-1.10;99.90;;;;;;4850272;29;20896;-68
2024/01/09 14:23:07;;;;;;;3.42;2.35;;;-1.20;99.90;;;;;;4847232;29;20244;-68
2024/01/09 14:25:47;;;;;;;2.70;2.05;;;-1.20;99.90;;;;;;4854630;29;20216;-68
2024/01/09 14:28:16;;;;;;;3.60;1.83;;;-1.20;99.90;;;;;;4855312;29;20679;-67
2024/01/09 14:30:47;;;;;;;1.38;1.33;;;-1.20;99.90;;;;;;4852267;29;20241;-68
2024/01/09 14:33:15;;;;;;;2.72;1.95;;;-1.20;99.90;;;;;;4848386;29;20287;-68
2024/01/09 14:35:45;;;;;;;1.85;1.75;;;-1.30;99.90;;;;;;4848904;29;20725;-68
2024/01/09 14:38:19;;;;;;;3.92;2.55;;;-1.30;99.90;;;;;;4851642;29;20306;-68
2024/01/09 14:40:58;;;;;;;2.80;1.23;;;-1.30;99.90;;;;;;4851162;29;20235;-68
2024/01/09 14:43:30;;;;;;;2.63;2.53;;;-1.40;99.90;;;;;;4847906;29;20315;-67
2024/01/09 14:46:02;;;;;;;1.92;1.85;;;-1.40;99.90;;;;;;4847445;29;20212;-67
2024/01/09 14:48:34;;;;;;;1.48;1.45;;;-1.50;99.90;;;;;;4847695;29;20205;-67
2024/01/09 14:51:09;;;;;;;3.00;2.80;;;-1.60;99.90;;;;;;4846726;29;20239;-67
2024/01/09 14:53:46;;;;;;;1.85;1.83;;;-1.70;99.90;;;;;;4848974;29;20209;-67
2024/01/09 14:56:21;;;;;;;5.28;2.40;;;-1.70;99.90;;;;;;4854412;29;20216;-68
2024/01/09 14:58:50;;;;;;;1.95;1.83;;;-1.80;99.90;;;;;;4845367;29;20231;-67
2024/01/09 15:01:35;;;;;;;1.30;1.20;;;-1.80;99.90;;;;;;4848163;29;20245;-67
2024/01/09 15:04:13;;;;;;;2.78;1.25;;;-1.90;99.90;;;;;;4845130;29;20248;-68
2024/01/09 15:06:48;;;;;;;2.08;1.98;;;-1.90;99.90;;;;;;4842157;29;20244;-67
2024/01/09 15:09:16;;;;;;;2.25;2.05;;;-1.90;99.90;;;;;;4850715;29;20675;-68
2024/01/09 15:11:44;;;;;;;2.28;2.17;;;-1.90;99.90;;;;;;4849409;29;20229;-68
2024/01/09 15:14:17;;;;;;;2.25;2.15;;;-2.00;99.90;;;;;;4848425;29;20217;-67
2024/01/09 15:16:45;;;;;;;3.33;2.58;;;-2.00;99.90;;;;;;4847754;29;20221;-68
2024/01/09 15:19:22;;;;;;;2.05;1.92;;;-2.00;99.90;;;;;;4845310;29;20215;-68
2024/01/09 15:22:01;;;;;;;5.95;4.65;;;-2.10;99.90;;;;;;4853933;29;20296;-68
2024/01/09 15:24:32;;;;;;;2.85;2.35;;;-2.10;99.90;;;;;;4854044;29;20221;-67
2024/01/09 15:27:05;;;;;;;2.63;2.42;;;-2.20;99.90;;;;;;4855141;29;20212;-68
2024/01/09 15:29:43;;;;;;;2.97;2.60;;;-2.20;99.90;;;;;;4855925;29;20205;-69
2024/01/09 15:32:10;;;;;;;3.15;3.00;;;-2.20;99.90;;;;;;4851241;29;20285;-69
2024/01/09 15:34:46;;;;;;;8.00;3.10;;;-2.20;99.90;;;;;;4854295;29;20213;-68
2024/01/09 15:37:16;;;;;;;2.97;2.78;;;-2.30;99.90;;;;;;4850374;29;20292;-68
2024/01/09 15:39:58;;;;;;;4.53;2.88;;;-2.30;99.90;;;;;;4855369;29;20259;-67
2024/01/09 15:42:26;;;;;;;4.93;3.20;;;-2.30;99.90;;;;;;4851662;29;20232;-68
2024/01/09 15:44:58;;;;;;;5.68;5.18;;;-2.40;99.90;;;;;;4851309;29;20663;-68
2024/01/09 15:47:38;;;;;;;3.67;2.45;;;-2.40;99.90;;;;;;4852887;29;20212;-68
2024/01/09 15:50:09;;;;;;;5.07;4.60;;;-2.40;99.90;;;;;;4852868;29;20228;-68
2024/01/09 15:52:37;;;;;;;2.38;2.28;;;-2.40;99.90;;;;;;4846055;29;20319;-68
2024/01/09 15:55:07;;;;;;;3.65;2.17;;;-2.50;99.90;;;;;;4853328;29;20312;-68
2024/01/09 15:57:34;;;;;;;4.50;2.28;;;-2.50;99.90;;;;;;4852999;29;20216;-68
2024/01/09 16:00:22;;;;;;;7.45;3.22;;;-2.50;99.90;;;;;;4854832;29;20212;-68
2024/01/09 16:02:52;;;;;;;2.58;2.47;;;-2.50;99.90;;;;;;4845779;29;20341;-68
2024/01/09 16:05:26;;;;;;;1.92;1.83;;;-2.60;99.90;;;;;;4854059;29;20220;-67
2024/01/09 16:08:02;;;;;;;4.82;2.83;;;-2.60;99.90;;;;;;4852618;29;20276;-68
2024/01/09 16:10:34;;;;;;;3.08;2.95;;;-2.60;99.90;;;;;;4850219;29;20269;-69
2024/01/09 16:13:09;;;;;;;4.47;4.13;;;-2.60;99.90;;;;;;4850272;29;20261;-69
2024/01/09 16:15:45;;;;;;;3.78;2.75;;;-2.70;99.90;;;;;;4854726;29;20242;-69
2024/01/09 16:18:14;;;;;;;4.22;3.65;;;-2.70;99.90;;;;;;4854113;29;20559;-69
2024/01/09 16:20:49;;;;;;;7.25;6.30;;;-2.70;99.90;;;;;;4848213;29;20236;-68
2024/01/09 16:23:24;;;;;;;6.25;5.40;;;-2.70;99.90;;;;;;4848537;29;20323;-68
2024/01/09 16:26:01;;;;;;;3.88;3.60;;;-2.80;99.90;;;;;;4849343;29;20796;-68
2024/01/09 16:28:34;;;;;;;6.75;4.88;;;-2.80;99.90;;;;;;4851054;29;20637;-68
2024/01/09 16:31:03;;;;;;;7.32;5.63;;;-2.80;99.90;;;;;;4845814;29;20244;-67
2024/01/09 16:33:36;;;;;;;5.63;5.13;;;-2.80;99.90;;;;;;4851844;29;20210;-68
2024/01/09 16:36:12;;;;;;;6.57;6.00;;;-2.80;99.90;;;;;;4855298;29;20208;-68
2024/01/09 16:38:46;;;;;;;10.30;5.63;;;-2.80;99.90;;;;;;4850803;29;20862;-68
2024/01/09 16:41:16;;;;;;;7.00;5.50;;;-2.80;99.90;;;;;;4854173;29;20240;-68
2024/01/09 16:43:55;;;;;;;6.13;5.57;;;-2.90;99.90;;;;;;4852238;29;20251;-67
2024/01/09 16:46:28;;;;;;;7.93;6.47;;;-2.90;99.90;;;;;;4849382;29;20212;-67
2024/01/09 16:49:02;;;;;;;6.75;4.70;;;-2.90;99.90;;;;;;4856356;29;20273;-68
2024/01/09 16:51:31;;;;;;;3.58;3.45;;;-2.90;99.90;;;;;;4852972;29;20228;-68
2024/01/09 16:53:59;;;;;;;4.40;4.00;;;-3.00;99.90;;;;;;4851876;29;20296;-69
2024/01/09 16:56:26;;;;;;;11.38;5.85;;;-2.90;99.90;;;;;;4854565;29;20224;-69
2024/01/09 16:58:53;;;;;;;9.32;5.10;;;-3.00;99.90;;;;;;4858370;29;20217;-69
2024/01/09 17:01:21;;;;;;;4.20;3.90;;;-3.00;99.90;;;;;;4849571;29;20293;-69
2024/01/09 17:03:50;;;;;;;6.20;4.22;;;-3.00;99.90;;;;;;4847828;29;20245;-69
2024/01/09 17:06:17;;;;;;;3.00;2.88;;;-3.00;99.90;;;;;;4846700;29;20312;-68
2024/01/09 17:08:44;;;;;;;3.08;3.00;;;-3.00;99.90;;;;;;4855600;29;20584;-69
2024/01/09 17:11:13;;;;;;;6.00;5.47;;;-3.00;99.90;;;;;;4852743;29;20712;-69
2024/01/09 17:13:40;;;;;;;5.88;4.80;;;-3.10;99.90;;;;;;4850994;29;20216;-69
2024/01/09 17:16:08;;;;;;;6.18;5.35;;;-3.10;99.90;;;;;;4849441;29;20220;-69
2024/01/09 17:18:36;;;;;;;3.40;3.20;;;-3.10;99.90;;;;;;4845453;29;20239;-69
2024/01/09 17:21:05;;;;;;;6.00;5.50;;;-3.10;99.90;;;;;;4847965;29;20228;-69
2024/01/09 17:23:31;;;;;;;8.80;3.78;;;-3.10;99.90;;;;;;4855516;29;20284;-68
2024/01/09 17:25:59;;;;;;;4.97;4.57;;;-3.10;99.90;;;;;;4851919;29;20247;-69
2024/01/09 17:28:26;;;;;;;26.15;7.18;;;-3.20;99.90;;;;;;4852374;29;20640;-69
2024/01/09 17:30:52;;;;;;;7.93;4.80;;;-3.20;99.90;;;;;;4857774;29;20240;-70
2024/01/09 17:33:19;;;;;;;8.52;7.55;;;-3.20;99.90;;;;;;4851588;29;20549;-69
2024/01/09 17:35:46;;;;;;;6.30;4.97;;;-3.20;99.90;;;;;;4849425;29;20216;-69
2024/01/09 17:38:14;;;;;;;7.93;5.13;;;-3.30;99.90;;;;;;4857109;29;20223;-69
2024/01/09 17:40:41;;;;;;;5.82;5.20;;;-3.30;99.90;;;;;;4851496;29;20668;-69
2024/01/09 17:43:07;;;;;;;8.80;4.85;;;-3.30;99.90;;;;;;4853309;29;20241;-69
2024/01/09 17:45:34;;;;;;;5.78;4.35;;;-3.30;99.90;;;;;;4855039;29;20557;-69
2024/01/09 17:48:01;;;;;;;5.03;4.38;;;-3.30;99.90;;;;;;4854346;29;20574;-70
2024/01/09 17:50:28;;;;;;;4.82;4.40;;;-3.30;99.90;;;;;;4855658;29;20218;-70
2024/01/09 17:52:55;;;;;;;4.00;3.70;;;-3.40;99.90;;;;;;4851228;29;20215;-67
2024/01/09 17:55:23;;;;;;;3.65;3.35;;;-3.40;99.90;;;;;;4844712;29;20232;-68
2024/01/09 17:57:51;;;;;;;4.10;3.67;;;-3.40;99.90;;;;;;4856171;29;20209;-69